sensor_id;sensor_type;location;lat;lon;timestamp;P1;durP1;ratioP1;P2;durP2;ratioP2
22849;SDS011;11591;44.792;10.358;2023-05-07T00:00:01;13.10;;;7.47;;
22849;SDS011;11591;44.792;10.358;2023-05-07T00:02:28;18.42;;;8.18;;
22849;SDS011;11591;44.792;10.358;2023-05-07T00:04:54;11.48;;;8.77;;
22849;SDS011;11591;44.792;10.358;2023-05-07T00:07:20;14.70;;;8.73;;
22849;SDS011;11591;44.792;10.358;2023-05-07T00:09:46;12.50;;;9.68;;
22849;SDS011;11591;44.792;10.358;2023-05-07T00:12:12;16.23;;;9.98;;
22849;SDS011;11591;44.792;10.358;2023-05-07T00:14:37;15.43;;;9.82;;
22849;SDS011;11591;44.792;10.358;2023-05-07T00:17:03;13.43;;;10.13;;
22849;SDS011;11591;44.792;10.358;2023-05-07T00:19:29;14.48;;;10.73;;
22849;SDS011;11591;44.792;10.358;2023-05-07T00:21:54;15.40;;;11.13;;
22849;SDS011;11591;44.792;10.358;2023-05-07T00:24:21;15.43;;;10.98;;
22849;SDS011;11591;44.792;10.358;2023-05-07T00:26:47;17.15;;;12.45;;
22849;SDS011;11591;44.792;10.358;2023-05-07T00:29:13;15.80;;;11.05;;
22849;SDS011;11591;44.792;10.358;2023-05-07T00:31:38;13.07;;;10.25;;
22849;SDS011;11591;44.792;10.358;2023-05-07T00:34:04;16.15;;;10.30;;
22849;SDS011;11591;44.792;10.358;2023-05-07T00:36:31;13.10;;;10.00;;
22849;SDS011;11591;44.792;10.358;2023-05-07T00:38:58;17.60;;;11.55;;
22849;SDS011;11591;44.792;10.358;2023-05-07T00:41:27;16.95;;;11.05;;
22849;SDS011;11591;44.792;10.358;2023-05-07T00:43:52;17.85;;;10.75;;
22849;SDS011;11591;44.792;10.358;2023-05-07T00:46:20;15.35;;;10.10;;
22849;SDS011;11591;44.792;10.358;2023-05-07T00:48:46;15.48;;;10.15;;
22849;SDS011;11591;44.792;10.358;2023-05-07T00:51:12;13.73;;;10.43;;
22849;SDS011;11591;44.792;10.358;2023-05-07T00:53:38;14.90;;;9.95;;
22849;SDS011;11591;44.792;10.358;2023-05-07T00:56:05;16.33;;;10.02;;
22849;SDS011;11591;44.792;10.358;2023-05-07T00:58:32;16.02;;;10.30;;
22849;SDS011;11591;44.792;10.358;2023-05-07T01:00:58;15.77;;;9.40;;
22849;SDS011;11591;44.792;10.358;2023-05-07T01:03:24;14.10;;;9.98;;
22849;SDS011;11591;44.792;10.358;2023-05-07T01:05:50;15.15;;;10.00;;
22849;SDS011;11591;44.792;10.358;2023-05-07T01:08:18;13.98;;;10.00;;
22849;SDS011;11591;44.792;10.358;2023-05-07T01:10:44;13.82;;;8.80;;
22849;SDS011;11591;44.792;10.358;2023-05-07T01:13:11;13.57;;;10.07;;
22849;SDS011;11591;44.792;10.358;2023-05-07T01:15:40;14.50;;;10.35;;
22849;SDS011;11591;44.792;10.358;2023-05-07T01:18:06;13.10;;;9.23;;
22849;SDS011;11591;44.792;10.358;2023-05-07T01:20:34;16.75;;;9.40;;
22849;SDS011;11591;44.792;10.358;2023-05-07T01:23:00;14.40;;;9.30;;
22849;SDS011;11591;44.792;10.358;2023-05-07T01:25:26;13.15;;;10.05;;
22849;SDS011;11591;44.792;10.358;2023-05-07T01:27:56;13.43;;;10.07;;
22849;SDS011;11591;44.792;10.358;2023-05-07T01:30:26;13.38;;;9.18;;
22849;SDS011;11591;44.792;10.358;2023-05-07T01:32:58;12.93;;;9.57;;
22849;SDS011;11591;44.792;10.358;2023-05-07T01:35:27;13.13;;;9.50;;
22849;SDS011;11591;44.792;10.358;2023-05-07T01:37:55;16.00;;;9.55;;
22849;SDS011;11591;44.792;10.358;2023-05-07T01:40:22;15.65;;;10.70;;
22849;SDS011;11591;44.792;10.358;2023-05-07T01:42:50;22.35;;;14.20;;
22849;SDS011;11591;44.792;10.358;2023-05-07T01:45:16;26.45;;;13.65;;
22849;SDS011;11591;44.792;10.358;2023-05-07T01:47:42;22.83;;;14.43;;
22849;SDS011;11591;44.792;10.358;2023-05-07T01:50:08;25.70;;;16.75;;
22849;SDS011;11591;44.792;10.358;2023-05-07T01:52:36;28.00;;;19.23;;
22849;SDS011;11591;44.792;10.358;2023-05-07T01:55:04;31.25;;;21.15;;
22849;SDS011;11591;44.792;10.358;2023-05-07T01:57:31;34.58;;;23.25;;
22849;SDS011;11591;44.792;10.358;2023-05-07T01:59:56;32.45;;;21.17;;
22849;SDS011;11591;44.792;10.358;2023-05-07T02:02:22;33.88;;;21.92;;
22849;SDS011;11591;44.792;10.358;2023-05-07T02:04:48;34.00;;;21.85;;
22849;SDS011;11591;44.792;10.358;2023-05-07T02:07:15;33.70;;;21.02;;
22849;SDS011;11591;44.792;10.358;2023-05-07T02:09:41;32.60;;;21.92;;
22849;SDS011;11591;44.792;10.358;2023-05-07T02:12:07;34.15;;;21.95;;
22849;SDS011;11591;44.792;10.358;2023-05-07T02:14:33;38.92;;;22.23;;
22849;SDS011;11591;44.792;10.358;2023-05-07T02:16:59;32.75;;;21.35;;
22849;SDS011;11591;44.792;10.358;2023-05-07T02:19:25;37.88;;;23.63;;
22849;SDS011;11591;44.792;10.358;2023-05-07T02:21:50;45.15;;;23.20;;
22849;SDS011;11591;44.792;10.358;2023-05-07T02:24:16;34.05;;;22.95;;
22849;SDS011;11591;44.792;10.358;2023-05-07T02:26:42;32.15;;;21.48;;
22849;SDS011;11591;44.792;10.358;2023-05-07T02:29:08;36.28;;;19.50;;
22849;SDS011;11591;44.792;10.358;2023-05-07T02:31:35;31.92;;;20.63;;
22849;SDS011;11591;44.792;10.358;2023-05-07T02:34:01;33.00;;;20.58;;
22849;SDS011;11591;44.792;10.358;2023-05-07T02:36:27;32.83;;;19.10;;
22849;SDS011;11591;44.792;10.358;2023-05-07T02:39:02;30.85;;;20.73;;
22849;SDS011;11591;44.792;10.358;2023-05-07T02:41:28;32.00;;;20.70;;
22849;SDS011;11591;44.792;10.358;2023-05-07T02:43:54;34.47;;;20.00;;
22849;SDS011;11591;44.792;10.358;2023-05-07T02:46:20;27.48;;;18.10;;
22849;SDS011;11591;44.792;10.358;2023-05-07T02:48:51;29.80;;;19.13;;
22849;SDS011;11591;44.792;10.358;2023-05-07T02:51:19;30.83;;;18.75;;
22849;SDS011;11591;44.792;10.358;2023-05-07T02:53:46;27.98;;;18.90;;
22849;SDS011;11591;44.792;10.358;2023-05-07T02:56:12;25.52;;;14.57;;
22849;SDS011;11591;44.792;10.358;2023-05-07T02:58:38;23.38;;;14.20;;
22849;SDS011;11591;44.792;10.358;2023-05-07T03:01:05;19.80;;;10.55;;
22849;SDS011;11591;44.792;10.358;2023-05-07T03:03:54;11.05;;;7.75;;
22849;SDS011;11591;44.792;10.358;2023-05-07T03:06:21;12.57;;;7.90;;
22849;SDS011;11591;44.792;10.358;2023-05-07T03:08:46;13.27;;;7.28;;
22849;SDS011;11591;44.792;10.358;2023-05-07T03:11:13;8.93;;;6.68;;
22849;SDS011;11591;44.792;10.358;2023-05-07T03:13:39;12.15;;;5.60;;
22849;SDS011;11591;44.792;10.358;2023-05-07T03:16:07;8.35;;;5.82;;
22849;SDS011;11591;44.792;10.358;2023-05-07T03:18:32;8.20;;;5.78;;
22849;SDS011;11591;44.792;10.358;2023-05-07T03:20:58;8.15;;;5.75;;
22849;SDS011;11591;44.792;10.358;2023-05-07T03:23:24;7.90;;;5.30;;
22849;SDS011;11591;44.792;10.358;2023-05-07T03:25:50;6.35;;;4.63;;
22849;SDS011;11591;44.792;10.358;2023-05-07T03:28:16;7.13;;;5.05;;
22849;SDS011;11591;44.792;10.358;2023-05-07T03:30:48;7.45;;;4.97;;
22849;SDS011;11591;44.792;10.358;2023-05-07T03:33:14;9.48;;;5.32;;
22849;SDS011;11591;44.792;10.358;2023-05-07T03:35:40;13.80;;;5.82;;
22849;SDS011;11591;44.792;10.358;2023-05-07T03:38:06;8.32;;;5.07;;
22849;SDS011;11591;44.792;10.358;2023-05-07T03:40:35;9.63;;;5.18;;
22849;SDS011;11591;44.792;10.358;2023-05-07T03:43:02;8.85;;;5.80;;
22849;SDS011;11591;44.792;10.358;2023-05-07T03:45:30;7.70;;;5.47;;
22849;SDS011;11591;44.792;10.358;2023-05-07T03:48:15;8.20;;;5.20;;
22849;SDS011;11591;44.792;10.358;2023-05-07T03:50:41;7.63;;;5.50;;
22849;SDS011;11591;44.792;10.358;2023-05-07T03:53:07;10.77;;;6.40;;
22849;SDS011;11591;44.792;10.358;2023-05-07T03:55:37;9.93;;;6.13;;
22849;SDS011;11591;44.792;10.358;2023-05-07T03:58:03;8.93;;;5.32;;
22849;SDS011;11591;44.792;10.358;2023-05-07T04:00:29;10.10;;;6.88;;
22849;SDS011;11591;44.792;10.358;2023-05-07T04:02:58;12.10;;;5.80;;
22849;SDS011;11591;44.792;10.358;2023-05-07T04:05:28;10.23;;;6.53;;
22849;SDS011;11591;44.792;10.358;2023-05-07T04:07:58;12.27;;;6.00;;
22849;SDS011;11591;44.792;10.358;2023-05-07T04:10:31;10.50;;;5.63;;
22849;SDS011;11591;44.792;10.358;2023-05-07T04:12:59;8.43;;;5.50;;
22849;SDS011;11591;44.792;10.358;2023-05-07T04:15:25;8.88;;;5.43;;
22849;SDS011;11591;44.792;10.358;2023-05-07T04:17:51;6.70;;;5.00;;
22849;SDS011;11591;44.792;10.358;2023-05-07T04:20:20;7.28;;;5.03;;
22849;SDS011;11591;44.792;10.358;2023-05-07T04:22:50;6.32;;;4.25;;
22849;SDS011;11591;44.792;10.358;2023-05-07T04:25:16;8.50;;;4.60;;
22849;SDS011;11591;44.792;10.358;2023-05-07T04:27:42;9.20;;;4.13;;
22849;SDS011;11591;44.792;10.358;2023-05-07T04:30:08;7.85;;;4.00;;
22849;SDS011;11591;44.792;10.358;2023-05-07T04:32:37;6.68;;;4.15;;
22849;SDS011;11591;44.792;10.358;2023-05-07T04:35:04;5.80;;;4.13;;
22849;SDS011;11591;44.792;10.358;2023-05-07T04:37:34;8.02;;;4.10;;
22849;SDS011;11591;44.792;10.358;2023-05-07T04:40:00;5.63;;;3.88;;
22849;SDS011;11591;44.792;10.358;2023-05-07T04:42:26;4.90;;;3.72;;
22849;SDS011;11591;44.792;10.358;2023-05-07T04:44:52;6.15;;;4.07;;
22849;SDS011;11591;44.792;10.358;2023-05-07T04:47:20;5.85;;;4.13;;
22849;SDS011;11591;44.792;10.358;2023-05-07T04:49:46;7.15;;;3.83;;
22849;SDS011;11591;44.792;10.358;2023-05-07T04:52:12;6.30;;;3.17;;
22849;SDS011;11591;44.792;10.358;2023-05-07T04:54:38;8.90;;;4.15;;
22849;SDS011;11591;44.792;10.358;2023-05-07T04:57:05;9.15;;;4.40;;
22849;SDS011;11591;44.792;10.358;2023-05-07T04:59:31;6.90;;;4.90;;
22849;SDS011;11591;44.792;10.358;2023-05-07T05:01:58;7.63;;;5.10;;
22849;SDS011;11591;44.792;10.358;2023-05-07T05:04:24;8.68;;;5.32;;
22849;SDS011;11591;44.792;10.358;2023-05-07T05:06:50;11.52;;;5.95;;
22849;SDS011;11591;44.792;10.358;2023-05-07T05:09:16;13.77;;;5.25;;
22849;SDS011;11591;44.792;10.358;2023-05-07T05:11:43;7.57;;;5.47;;
22849;SDS011;11591;44.792;10.358;2023-05-07T05:14:08;7.95;;;5.30;;
22849;SDS011;11591;44.792;10.358;2023-05-07T05:16:34;8.07;;;5.10;;
22849;SDS011;11591;44.792;10.358;2023-05-07T05:19:01;11.68;;;5.88;;
22849;SDS011;11591;44.792;10.358;2023-05-07T05:21:28;10.10;;;5.25;;
22849;SDS011;11591;44.792;10.358;2023-05-07T05:24:00;12.30;;;6.32;;
22849;SDS011;11591;44.792;10.358;2023-05-07T05:26:27;9.55;;;6.15;;
22849;SDS011;11591;44.792;10.358;2023-05-07T05:28:52;9.73;;;6.13;;
22849;SDS011;11591;44.792;10.358;2023-05-07T05:31:20;14.35;;;6.35;;
22849;SDS011;11591;44.792;10.358;2023-05-07T05:33:48;9.77;;;5.78;;
22849;SDS011;11591;44.792;10.358;2023-05-07T05:36:14;12.05;;;6.43;;
22849;SDS011;11591;44.792;10.358;2023-05-07T05:38:42;10.80;;;6.78;;
22849;SDS011;11591;44.792;10.358;2023-05-07T05:41:10;11.38;;;7.55;;
22849;SDS011;11591;44.792;10.358;2023-05-07T05:43:36;10.95;;;7.38;;
22849;SDS011;11591;44.792;10.358;2023-05-07T05:46:02;10.80;;;6.97;;
22849;SDS011;11591;44.792;10.358;2023-05-07T05:48:29;10.65;;;6.35;;
22849;SDS011;11591;44.792;10.358;2023-05-07T05:50:57;13.00;;;7.63;;
22849;SDS011;11591;44.792;10.358;2023-05-07T05:53:23;16.75;;;8.98;;
22849;SDS011;11591;44.792;10.358;2023-05-07T05:55:49;14.18;;;8.85;;
22849;SDS011;11591;44.792;10.358;2023-05-07T05:58:15;16.50;;;9.68;;
22849;SDS011;11591;44.792;10.358;2023-05-07T06:00:48;20.13;;;10.32;;
22849;SDS011;11591;44.792;10.358;2023-05-07T06:03:17;21.33;;;10.02;;
22849;SDS011;11591;44.792;10.358;2023-05-07T06:05:43;18.80;;;10.60;;
22849;SDS011;11591;44.792;10.358;2023-05-07T06:08:10;17.35;;;11.05;;
22849;SDS011;11591;44.792;10.358;2023-05-07T06:10:36;21.02;;;11.95;;
22849;SDS011;11591;44.792;10.358;2023-05-07T06:13:04;21.75;;;12.20;;
22849;SDS011;11591;44.792;10.358;2023-05-07T06:15:31;23.58;;;14.48;;
22849;SDS011;11591;44.792;10.358;2023-05-07T06:18:02;20.83;;;13.00;;
22849;SDS011;11591;44.792;10.358;2023-05-07T06:20:28;22.77;;;13.60;;
22849;SDS011;11591;44.792;10.358;2023-05-07T06:22:54;20.70;;;13.55;;
22849;SDS011;11591;44.792;10.358;2023-05-07T06:25:20;24.58;;;15.52;;
22849;SDS011;11591;44.792;10.358;2023-05-07T06:27:47;25.23;;;15.23;;
22849;SDS011;11591;44.792;10.358;2023-05-07T06:30:13;28.70;;;15.73;;
22849;SDS011;11591;44.792;10.358;2023-05-07T06:32:39;22.95;;;14.68;;
22849;SDS011;11591;44.792;10.358;2023-05-07T06:35:06;26.48;;;15.20;;
22849;SDS011;11591;44.792;10.358;2023-05-07T06:37:35;34.92;;;17.52;;
22849;SDS011;11591;44.792;10.358;2023-05-07T06:40:05;30.35;;;17.33;;
22849;SDS011;11591;44.792;10.358;2023-05-07T06:42:33;29.48;;;18.27;;
22849;SDS011;11591;44.792;10.358;2023-05-07T06:45:16;26.58;;;17.10;;
22849;SDS011;11591;44.792;10.358;2023-05-07T06:47:42;30.20;;;17.52;;
22849;SDS011;11591;44.792;10.358;2023-05-07T06:50:08;33.47;;;17.45;;
22849;SDS011;11591;44.792;10.358;2023-05-07T06:52:35;27.70;;;16.52;;
22849;SDS011;11591;44.792;10.358;2023-05-07T06:55:01;28.50;;;17.42;;
22849;SDS011;11591;44.792;10.358;2023-05-07T06:57:27;27.08;;;17.13;;
22849;SDS011;11591;44.792;10.358;2023-05-07T06:59:53;27.45;;;18.17;;
22849;SDS011;11591;44.792;10.358;2023-05-07T07:02:19;29.20;;;17.88;;
22849;SDS011;11591;44.792;10.358;2023-05-07T07:04:48;27.73;;;16.92;;
22849;SDS011;11591;44.792;10.358;2023-05-07T07:07:13;27.00;;;17.60;;
22849;SDS011;11591;44.792;10.358;2023-05-07T07:09:42;31.33;;;18.50;;
22849;SDS011;11591;44.792;10.358;2023-05-07T07:12:09;29.63;;;17.95;;
22849;SDS011;11591;44.792;10.358;2023-05-07T07:14:37;30.52;;;17.20;;
22849;SDS011;11591;44.792;10.358;2023-05-07T07:17:03;28.15;;;17.38;;
22849;SDS011;11591;44.792;10.358;2023-05-07T07:19:31;26.60;;;16.25;;
22849;SDS011;11591;44.792;10.358;2023-05-07T07:21:57;25.85;;;15.35;;
22849;SDS011;11591;44.792;10.358;2023-05-07T07:24:23;30.35;;;17.08;;
22849;SDS011;11591;44.792;10.358;2023-05-07T07:26:53;21.27;;;14.57;;
22849;SDS011;11591;44.792;10.358;2023-05-07T07:29:21;28.40;;;16.02;;
22849;SDS011;11591;44.792;10.358;2023-05-07T07:31:48;25.20;;;14.63;;
22849;SDS011;11591;44.792;10.358;2023-05-07T07:34:15;22.85;;;13.73;;
22849;SDS011;11591;44.792;10.358;2023-05-07T07:36:41;22.67;;;13.65;;
22849;SDS011;11591;44.792;10.358;2023-05-07T07:39:08;24.15;;;14.27;;
22849;SDS011;11591;44.792;10.358;2023-05-07T07:41:34;26.35;;;14.15;;
22849;SDS011;11591;44.792;10.358;2023-05-07T07:44:01;20.85;;;13.43;;
22849;SDS011;11591;44.792;10.358;2023-05-07T07:46:28;20.70;;;13.50;;
22849;SDS011;11591;44.792;10.358;2023-05-07T07:48:54;23.38;;;13.00;;
22849;SDS011;11591;44.792;10.358;2023-05-07T07:51:23;24.42;;;14.18;;
22849;SDS011;11591;44.792;10.358;2023-05-07T07:53:49;20.05;;;12.93;;
22849;SDS011;11591;44.792;10.358;2023-05-07T07:56:17;20.45;;;12.57;;
22849;SDS011;11591;44.792;10.358;2023-05-07T07:58:42;19.58;;;12.85;;
22849;SDS011;11591;44.792;10.358;2023-05-07T08:01:08;22.27;;;13.02;;
22849;SDS011;11591;44.792;10.358;2023-05-07T08:03:34;21.55;;;13.23;;
22849;SDS011;11591;44.792;10.358;2023-05-07T08:06:01;20.98;;;13.10;;
22849;SDS011;11591;44.792;10.358;2023-05-07T08:08:27;18.42;;;12.10;;
22849;SDS011;11591;44.792;10.358;2023-05-07T08:10:53;19.40;;;13.02;;
22849;SDS011;11591;44.792;10.358;2023-05-07T08:13:26;18.15;;;12.80;;
22849;SDS011;11591;44.792;10.358;2023-05-07T08:15:53;21.15;;;12.60;;
22849;SDS011;11591;44.792;10.358;2023-05-07T08:18:19;20.02;;;13.00;;
22849;SDS011;11591;44.792;10.358;2023-05-07T08:20:45;23.60;;;13.40;;
22849;SDS011;11591;44.792;10.358;2023-05-07T08:23:15;20.02;;;13.60;;
22849;SDS011;11591;44.792;10.358;2023-05-07T08:25:42;20.45;;;12.10;;
22849;SDS011;11591;44.792;10.358;2023-05-07T08:28:09;18.08;;;12.40;;
22849;SDS011;11591;44.792;10.358;2023-05-07T08:30:36;18.88;;;11.63;;
22849;SDS011;11591;44.792;10.358;2023-05-07T08:33:02;15.80;;;11.15;;
22849;SDS011;11591;44.792;10.358;2023-05-07T08:35:27;21.83;;;13.50;;
22849;SDS011;11591;44.792;10.358;2023-05-07T08:37:54;20.00;;;12.68;;
22849;SDS011;11591;44.792;10.358;2023-05-07T08:40:22;16.77;;;11.68;;
22849;SDS011;11591;44.792;10.358;2023-05-07T08:42:51;17.17;;;11.40;;
22849;SDS011;11591;44.792;10.358;2023-05-07T08:45:18;21.17;;;11.85;;
22849;SDS011;11591;44.792;10.358;2023-05-07T08:47:52;15.77;;;10.57;;
22849;SDS011;11591;44.792;10.358;2023-05-07T08:50:25;18.98;;;11.65;;
22849;SDS011;11591;44.792;10.358;2023-05-07T08:52:51;17.15;;;11.77;;
22849;SDS011;11591;44.792;10.358;2023-05-07T08:55:18;18.77;;;12.18;;
22849;SDS011;11591;44.792;10.358;2023-05-07T08:57:44;18.92;;;11.38;;
22849;SDS011;11591;44.792;10.358;2023-05-07T09:00:11;16.58;;;10.90;;
22849;SDS011;11591;44.792;10.358;2023-05-07T09:02:39;15.68;;;10.65;;
22849;SDS011;11591;44.792;10.358;2023-05-07T09:05:06;17.00;;;11.68;;
22849;SDS011;11591;44.792;10.358;2023-05-07T09:07:33;14.20;;;10.23;;
22849;SDS011;11591;44.792;10.358;2023-05-07T09:10:02;15.05;;;9.55;;
22849;SDS011;11591;44.792;10.358;2023-05-07T09:12:29;16.88;;;10.15;;
22849;SDS011;11591;44.792;10.358;2023-05-07T09:14:56;16.30;;;10.27;;
22849;SDS011;11591;44.792;10.358;2023-05-07T09:17:22;16.95;;;10.80;;
22849;SDS011;11591;44.792;10.358;2023-05-07T09:19:49;15.57;;;10.52;;
22849;SDS011;11591;44.792;10.358;2023-05-07T09:22:15;17.58;;;10.10;;
22849;SDS011;11591;44.792;10.358;2023-05-07T09:24:59;17.05;;;10.27;;
22849;SDS011;11591;44.792;10.358;2023-05-07T09:27:26;15.15;;;9.98;;
22849;SDS011;11591;44.792;10.358;2023-05-07T09:29:53;13.45;;;8.55;;
22849;SDS011;11591;44.792;10.358;2023-05-07T09:32:19;13.93;;;7.78;;
22849;SDS011;11591;44.792;10.358;2023-05-07T09:34:45;15.82;;;7.95;;
22849;SDS011;11591;44.792;10.358;2023-05-07T09:37:14;14.38;;;7.75;;
22849;SDS011;11591;44.792;10.358;2023-05-07T09:42:08;16.58;;;9.77;;
22849;SDS011;11591;44.792;10.358;2023-05-07T09:44:35;11.13;;;7.10;;
22849;SDS011;11591;44.792;10.358;2023-05-07T09:47:04;13.63;;;7.97;;
22849;SDS011;11591;44.792;10.358;2023-05-07T09:49:37;11.60;;;7.15;;
22849;SDS011;11591;44.792;10.358;2023-05-07T09:52:08;12.52;;;7.15;;
22849;SDS011;11591;44.792;10.358;2023-05-07T09:54:39;13.45;;;8.50;;
22849;SDS011;11591;44.792;10.358;2023-05-07T09:57:10;14.30;;;7.80;;
22849;SDS011;11591;44.792;10.358;2023-05-07T09:59:38;12.38;;;6.75;;
22849;SDS011;11591;44.792;10.358;2023-05-07T10:02:09;9.82;;;7.47;;
22849;SDS011;11591;44.792;10.358;2023-05-07T10:04:44;10.98;;;8.25;;
22849;SDS011;11591;44.792;10.358;2023-05-07T10:07:11;11.15;;;6.72;;
22849;SDS011;11591;44.792;10.358;2023-05-07T10:09:38;9.57;;;7.03;;
22849;SDS011;11591;44.792;10.358;2023-05-07T10:12:12;13.43;;;8.05;;
22849;SDS011;11591;44.792;10.358;2023-05-07T10:14:38;13.23;;;8.02;;
22849;SDS011;11591;44.792;10.358;2023-05-07T10:17:05;12.95;;;10.00;;
22849;SDS011;11591;44.792;10.358;2023-05-07T10:19:32;13.65;;;9.55;;
22849;SDS011;11591;44.792;10.358;2023-05-07T10:22:01;14.38;;;9.07;;
22849;SDS011;11591;44.792;10.358;2023-05-07T10:24:33;15.10;;;9.23;;
22849;SDS011;11591;44.792;10.358;2023-05-07T10:27:08;14.07;;;9.90;;
22849;SDS011;11591;44.792;10.358;2023-05-07T10:34:45;16.23;;;9.07;;
22849;SDS011;11591;44.792;10.358;2023-05-07T10:37:14;13.82;;;9.23;;
22849;SDS011;11591;44.792;10.358;2023-05-07T10:39:41;13.05;;;9.50;;
22849;SDS011;11591;44.792;10.358;2023-05-07T10:42:09;15.90;;;9.65;;
22849;SDS011;11591;44.792;10.358;2023-05-07T10:44:37;19.92;;;11.65;;
22849;SDS011;11591;44.792;10.358;2023-05-07T10:50:21;19.67;;;11.90;;
22849;SDS011;11591;44.792;10.358;2023-05-07T10:52:32;17.23;;;11.05;;
22849;SDS011;11591;44.792;10.358;2023-05-07T10:57:49;19.75;;;14.00;;
22849;SDS011;11591;44.792;10.358;2023-05-07T11:05:29;16.08;;;9.60;;
22849;SDS011;11591;44.792;10.358;2023-05-07T11:08:25;19.65;;;9.95;;
22849;SDS011;11591;44.792;10.358;2023-05-07T11:11:04;18.65;;;10.80;;
22849;SDS011;11591;44.792;10.358;2023-05-07T11:13:42;21.02;;;13.18;;
22849;SDS011;11591;44.792;10.358;2023-05-07T11:16:35;15.23;;;10.48;;
22849;SDS011;11591;44.792;10.358;2023-05-07T11:19:15;16.67;;;11.25;;
22849;SDS011;11591;44.792;10.358;2023-05-07T11:21:46;18.42;;;9.98;;
22849;SDS011;11591;44.792;10.358;2023-05-07T11:24:33;18.17;;;12.13;;
22849;SDS011;11591;44.792;10.358;2023-05-07T11:27:08;17.30;;;10.82;;
22849;SDS011;11591;44.792;10.358;2023-05-07T11:29:35;19.58;;;10.40;;
22849;SDS011;11591;44.792;10.358;2023-05-07T11:32:05;14.98;;;9.00;;
22849;SDS011;11591;44.792;10.358;2023-05-07T11:34:41;16.15;;;9.80;;
22849;SDS011;11591;44.792;10.358;2023-05-07T11:37:09;18.23;;;10.25;;
22849;SDS011;11591;44.792;10.358;2023-05-07T11:39:44;15.55;;;9.25;;
22849;SDS011;11591;44.792;10.358;2023-05-07T11:42:29;18.17;;;9.82;;
22849;SDS011;11591;44.792;10.358;2023-05-07T11:44:56;18.15;;;9.90;;
22849;SDS011;11591;44.792;10.358;2023-05-07T11:47:22;13.10;;;9.15;;
22849;SDS011;11591;44.792;10.358;2023-05-07T11:49:49;17.75;;;9.68;;
22849;SDS011;11591;44.792;10.358;2023-05-07T11:52:16;12.05;;;8.40;;
22849;SDS011;11591;44.792;10.358;2023-05-07T11:54:52;12.73;;;9.05;;
22849;SDS011;11591;44.792;10.358;2023-05-07T11:57:23;11.13;;;8.65;;
22849;SDS011;11591;44.792;10.358;2023-05-07T11:59:58;15.52;;;8.57;;
22849;SDS011;11591;44.792;10.358;2023-05-07T12:02:27;14.02;;;10.10;;
22849;SDS011;11591;44.792;10.358;2023-05-07T12:04:53;12.73;;;8.73;;
22849;SDS011;11591;44.792;10.358;2023-05-07T12:07:23;17.13;;;8.90;;
22849;SDS011;11591;44.792;10.358;2023-05-07T12:09:49;11.07;;;8.10;;
22849;SDS011;11591;44.792;10.358;2023-05-07T12:12:15;13.00;;;8.73;;
22849;SDS011;11591;44.792;10.358;2023-05-07T12:14:43;11.73;;;8.38;;
22849;SDS011;11591;44.792;10.358;2023-05-07T12:17:11;16.40;;;9.55;;
22849;SDS011;11591;44.792;10.358;2023-05-07T12:19:39;15.30;;;9.95;;
22849;SDS011;11591;44.792;10.358;2023-05-07T12:22:07;13.68;;;9.50;;
22849;SDS011;11591;44.792;10.358;2023-05-07T12:24:49;15.52;;;9.38;;
22849;SDS011;11591;44.792;10.358;2023-05-07T12:27:22;13.90;;;8.15;;
22849;SDS011;11591;44.792;10.358;2023-05-07T12:29:49;15.07;;;8.57;;
22849;SDS011;11591;44.792;10.358;2023-05-07T12:32:21;13.45;;;8.57;;
22849;SDS011;11591;44.792;10.358;2023-05-07T12:34:50;12.40;;;8.15;;
22849;SDS011;11591;44.792;10.358;2023-05-07T12:37:25;10.10;;;7.15;;
22849;SDS011;11591;44.792;10.358;2023-05-07T12:40:04;13.30;;;7.50;;
22849;SDS011;11591;44.792;10.358;2023-05-07T12:42:37;11.80;;;7.85;;
22849;SDS011;11591;44.792;10.358;2023-05-07T12:45:08;11.43;;;7.68;;
22849;SDS011;11591;44.792;10.358;2023-05-07T12:47:38;12.32;;;7.85;;
22849;SDS011;11591;44.792;10.358;2023-05-07T12:50:06;8.40;;;6.05;;
22849;SDS011;11591;44.792;10.358;2023-05-07T12:52:33;12.15;;;6.70;;
22849;SDS011;11591;44.792;10.358;2023-05-07T12:55:04;9.98;;;6.43;;
22849;SDS011;11591;44.792;10.358;2023-05-07T12:57:37;7.47;;;5.47;;
22849;SDS011;11591;44.792;10.358;2023-05-07T13:00:04;10.85;;;7.75;;
22849;SDS011;11591;44.792;10.358;2023-05-07T13:02:33;13.70;;;8.95;;
22849;SDS011;11591;44.792;10.358;2023-05-07T13:05:02;12.40;;;8.07;;
22849;SDS011;11591;44.792;10.358;2023-05-07T13:07:28;14.55;;;9.02;;
22849;SDS011;11591;44.792;10.358;2023-05-07T13:09:54;16.27;;;8.75;;
22849;SDS011;11591;44.792;10.358;2023-05-07T13:12:20;17.45;;;10.32;;
22849;SDS011;11591;44.792;10.358;2023-05-07T13:14:45;13.02;;;8.95;;
22849;SDS011;11591;44.792;10.358;2023-05-07T13:17:11;11.80;;;8.93;;
22849;SDS011;11591;44.792;10.358;2023-05-07T13:19:37;10.25;;;8.00;;
22849;SDS011;11591;44.792;10.358;2023-05-07T13:22:03;15.15;;;7.82;;
22849;SDS011;11591;44.792;10.358;2023-05-07T13:24:29;10.57;;;7.72;;
22849;SDS011;11591;44.792;10.358;2023-05-07T13:26:55;11.43;;;7.38;;
22849;SDS011;11591;44.792;10.358;2023-05-07T13:29:20;9.07;;;7.18;;
22849;SDS011;11591;44.792;10.358;2023-05-07T13:31:54;16.55;;;7.40;;
22849;SDS011;11591;44.792;10.358;2023-05-07T13:34:20;15.60;;;7.65;;
22849;SDS011;11591;44.792;10.358;2023-05-07T13:36:46;10.88;;;6.70;;
22849;SDS011;11591;44.792;10.358;2023-05-07T13:39:11;7.80;;;6.30;;
22849;SDS011;11591;44.792;10.358;2023-05-07T13:41:37;8.02;;;6.57;;
22849;SDS011;11591;44.792;10.358;2023-05-07T13:44:03;8.65;;;6.47;;
22849;SDS011;11591;44.792;10.358;2023-05-07T13:46:29;10.20;;;6.55;;
22849;SDS011;11591;44.792;10.358;2023-05-07T13:48:55;10.30;;;6.97;;
22849;SDS011;11591;44.792;10.358;2023-05-07T13:51:21;8.43;;;6.35;;
22849;SDS011;11591;44.792;10.358;2023-05-07T13:53:47;11.18;;;6.45;;
22849;SDS011;11591;44.792;10.358;2023-05-07T13:56:13;8.05;;;5.38;;
22849;SDS011;11591;44.792;10.358;2023-05-07T13:58:40;7.63;;;5.32;;
22849;SDS011;11591;44.792;10.358;2023-05-07T14:01:06;7.32;;;5.18;;
22849;SDS011;11591;44.792;10.358;2023-05-07T14:03:31;6.70;;;5.03;;
22849;SDS011;11591;44.792;10.358;2023-05-07T14:05:59;5.82;;;4.88;;
22849;SDS011;11591;44.792;10.358;2023-05-07T14:08:26;5.50;;;4.50;;
22849;SDS011;11591;44.792;10.358;2023-05-07T14:10:52;7.68;;;5.05;;
22849;SDS011;11591;44.792;10.358;2023-05-07T14:13:18;7.05;;;5.05;;
22849;SDS011;11591;44.792;10.358;2023-05-07T14:15:44;7.43;;;5.20;;
22849;SDS011;11591;44.792;10.358;2023-05-07T14:18:14;7.13;;;5.07;;
22849;SDS011;11591;44.792;10.358;2023-05-07T14:20:41;10.38;;;5.68;;
22849;SDS011;11591;44.792;10.358;2023-05-07T14:23:11;7.15;;;5.00;;
22849;SDS011;11591;44.792;10.358;2023-05-07T14:25:37;7.85;;;4.70;;
22849;SDS011;11591;44.792;10.358;2023-05-07T14:28:03;6.88;;;5.03;;
22849;SDS011;11591;44.792;10.358;2023-05-07T14:30:29;8.50;;;5.90;;
22849;SDS011;11591;44.792;10.358;2023-05-07T14:32:55;11.30;;;5.68;;
22849;SDS011;11591;44.792;10.358;2023-05-07T14:35:21;7.03;;;5.32;;
22849;SDS011;11591;44.792;10.358;2023-05-07T14:37:46;11.20;;;5.28;;
22849;SDS011;11591;44.792;10.358;2023-05-07T14:40:12;8.55;;;5.00;;